Lady Eman — 5IM513 — position and weather

sailwx.info

Track history (hours):
 
Tides and Currents Weather Stations Pressure Air Temp Water Temp Dewpoint Dewpoint Depression Visibility Wind Speed Wind Dir Waves Ship Positions

Lady Eman

Last reported at 2015-Dec-07 03:19 UTC. Time now 2016-Feb-09 10:01 UTC.
Position N 34°21' E 033°01'.
Warning: this ship's position is months out of date.

Length 92 m; draft 7.4 m.

Type: Cargo ship. MMSI: 677041300.

Date/timePositionNaut miles runAvg speedWind from/ knotsBaromVisibWave heightAir tempDewpointWater temp
2015-Dec-07 03:19N 34°21' E 033°01'6 7.2
2015-Dec-07 02:33N 34°26' E 033°04'7 7.1
2015-Dec-07 01:33N 34°33' E 033°06'7 7.3
2015-Dec-07 00:33N 34°40' E 033°06'1 1.5
2015-Dec-06 23:33N 34°41' E 033°04'0 0.0
2015-Dec-06 22:33N 34°41' E 033°04'0 0.3
2015-Dec-06 21:33N 34°40' E 033°04'5 4.6
2015-Dec-06 20:33N 34°40' E 033°10'7 7.2
2015-Dec-06 19:33N 34°40' E 033°19'  
2015-Nov-30 19:33N 34°30' E 033°25'10 8.7
2015-Nov-30 18:23N 34°26' E 033°14'7 9.0
2015-Nov-30 17:33N 34°24' E 033°05'9 9.1
2015-Nov-30 16:33N 34°22' E 032°54'9 8.9
2015-Nov-30 15:31N 34°20' E 032°43'  
Track history (hours):
 
Tides and Currents Weather Stations Pressure Air Temp Water Temp Dewpoint Dewpoint Depression Visibility Wind Speed Wind Dir Waves Ship Positions

Lady Eman

Last reported at 2015-Dec-07 03:19 UTC. Time now 2016-Feb-09 10:01 UTC.
Position N 34°21' E 033°01'.
Warning: this ship's position is months out of date.

Length 92 m; draft 7.4 m.

Type: Cargo ship. MMSI: 677041300.

Date/timePositionNaut miles runAvg speedWind from/ knotsBaromVisibWave heightAir tempDewpointWater temp
2015-Dec-07 03:19N 34°21' E 033°01'6 7.2
2015-Dec-07 02:33N 34°26' E 033°04'7 7.1
2015-Dec-07 01:33N 34°33' E 033°06'7 7.3
2015-Dec-07 00:33N 34°40' E 033°06'1 1.5
2015-Dec-06 23:33N 34°41' E 033°04'0 0.0
2015-Dec-06 22:33N 34°41' E 033°04'0 0.3
2015-Dec-06 21:33N 34°40' E 033°04'5 4.6
2015-Dec-06 20:33N 34°40' E 033°10'7 7.2
2015-Dec-06 19:33N 34°40' E 033°19'  
2015-Nov-30 19:33N 34°30' E 033°25'10 8.7
2015-Nov-30 18:23N 34°26' E 033°14'7 9.0
2015-Nov-30 17:33N 34°24' E 033°05'9 9.1
2015-Nov-30 16:33N 34°22' E 032°54'9 8.9
2015-Nov-30 15:31N 34°20' E 032°43'  

Dump ship's entire track history